createdAt,value
2023-02-26T00:01:27.450Z,0.00
2023-02-26T00:03:56.467Z,0.20
2023-02-26T00:06:24.935Z,0.00
2023-02-26T00:08:51.933Z,0.00
2023-02-26T00:11:18.755Z,0.00
2023-02-26T00:13:46.293Z,0.00
2023-02-26T00:16:28.842Z,0.73
2023-02-26T00:18:57.075Z,0.00
2023-02-26T00:21:24.999Z,0.00
2023-02-26T00:23:52.579Z,0.00
2023-02-26T00:26:20.113Z,0.00
2023-02-26T00:28:47.291Z,1.58
2023-02-26T00:31:18.253Z,0.00
2023-02-26T00:33:45.343Z,0.00
2023-02-26T00:36:32.368Z,0.00
2023-02-26T00:39:23.136Z,0.00
2023-02-26T00:41:50.197Z,0.00
2023-02-26T00:44:17.697Z,0.00
2023-02-26T00:46:57.227Z,0.00
2023-02-26T00:49:24.238Z,0.73
2023-02-26T00:52:02.670Z,0.00
2023-02-26T00:54:30.390Z,0.00
2023-02-26T00:56:58.219Z,0.00
2023-02-26T00:59:25.691Z,0.00
2023-02-26T01:01:53.132Z,0.00
2023-02-26T01:04:23.452Z,0.45
2023-02-26T01:06:55.827Z,0.00
2023-02-26T01:09:25.872Z,0.00
2023-02-26T01:11:57.227Z,0.00
2023-02-26T01:14:24.872Z,0.00
2023-02-26T01:16:54.009Z,0.00
2023-02-26T01:19:30.570Z,0.00
2023-02-26T01:22:04.531Z,0.65
2023-02-26T01:24:31.521Z,0.00
2023-02-26T01:26:58.577Z,0.00
2023-02-26T01:29:26.088Z,0.00
2023-02-26T01:31:55.249Z,0.00
2023-02-26T01:34:37.005Z,0.00
2023-02-26T01:37:22.647Z,0.00
2023-02-26T01:40:15.793Z,0.00
2023-02-26T01:42:45.136Z,0.00
2023-02-26T01:45:21.839Z,0.00
2023-02-26T01:47:52.266Z,0.00
2023-02-26T01:50:29.836Z,0.00
2023-02-26T01:53:24.442Z,0.00
2023-02-26T01:56:00.706Z,0.00
2023-02-26T01:58:31.446Z,0.00
2023-02-26T02:00:58.265Z,0.00
2023-02-26T02:03:26.464Z,0.00
2023-02-26T02:05:59.038Z,1.17
2023-02-26T02:08:26.072Z,0.00
2023-02-26T02:10:52.964Z,0.28
2023-02-26T02:13:22.619Z,0.00
2023-02-26T02:16:17.131Z,0.00
2023-02-26T02:19:02.649Z,0.10
2023-02-26T02:21:50.886Z,0.00
2023-02-26T02:24:34.168Z,0.00
2023-02-26T02:27:24.787Z,0.00
2023-02-26T02:30:00.279Z,0.10
2023-02-26T02:32:36.444Z,0.00
2023-02-26T02:35:23.972Z,0.00
2023-02-26T02:37:58.814Z,0.00
2023-02-26T02:40:32.618Z,0.00
2023-02-26T02:43:06.784Z,0.10
2023-02-26T02:45:50.517Z,0.00
2023-02-26T02:48:36.328Z,0.40
2023-02-26T02:51:22.721Z,0.00
2023-02-26T02:53:53.544Z,0.00
2023-02-26T02:59:24.270Z,0.00
2023-02-26T03:01:58.713Z,0.00
2023-02-26T03:04:25.803Z,0.00
2023-02-26T03:06:52.541Z,0.00
2023-02-26T03:09:19.382Z,0.20
2023-02-26T03:11:46.119Z,0.00
2023-02-26T03:14:14.612Z,0.00
2023-02-26T03:16:49.538Z,0.05
2023-02-26T03:19:29.121Z,0.28
2023-02-26T03:22:19.099Z,0.00
2023-02-26T03:25:19.221Z,0.00
2023-02-26T03:27:49.485Z,0.00
2023-02-26T03:30:40.146Z,0.00
2023-02-26T03:33:29.796Z,1.00
2023-02-26T03:36:10.471Z,0.00
2023-02-26T03:39:06.975Z,0.00
2023-02-26T03:41:43.388Z,0.00
2023-02-26T03:44:19.881Z,0.00
2023-02-26T03:46:51.746Z,0.63
2023-02-26T03:49:26.441Z,0.28
2023-02-26T03:51:53.852Z,0.00
2023-02-26T03:54:45.633Z,0.10
2023-02-26T03:57:31.153Z,0.00
2023-02-26T04:00:13.302Z,0.00
2023-02-26T04:02:50.606Z,0.00
2023-02-26T04:05:20.735Z,0.00
2023-02-26T04:07:49.224Z,0.10
2023-02-26T04:10:22.390Z,0.00
2023-02-26T04:12:49.223Z,0.00
2023-02-26T04:15:16.085Z,0.00
2023-02-26T04:17:43.013Z,0.00
2023-02-26T04:20:10.950Z,0.00
2023-02-26T04:22:38.479Z,0.00
2023-02-26T04:25:05.725Z,0.00
2023-02-26T04:27:32.609Z,0.00
2023-02-26T04:30:00.057Z,0.00
2023-02-26T04:32:27.134Z,0.00
2023-02-26T04:34:54.015Z,0.00
2023-02-26T04:37:20.972Z,0.13
2023-02-26T04:39:48.324Z,0.00
2023-02-26T04:42:15.116Z,0.00
2023-02-26T04:44:41.861Z,0.00
2023-02-26T04:47:08.753Z,1.02
2023-02-26T04:49:37.215Z,0.00
2023-02-26T04:52:04.237Z,0.00
2023-02-26T04:54:31.478Z,0.00
2023-02-26T04:56:58.397Z,0.00
2023-02-26T04:59:25.172Z,0.00
2023-02-26T05:01:52.468Z,0.00
2023-02-26T05:04:19.297Z,0.50
2023-02-26T05:06:50.289Z,0.00
2023-02-26T05:09:17.170Z,0.00
2023-02-26T05:11:44.438Z,0.00
2023-02-26T05:14:11.197Z,0.00
2023-02-26T05:16:39.427Z,0.00
2023-02-26T05:19:06.835Z,0.00
2023-02-26T05:21:33.913Z,0.00
2023-02-26T05:24:00.783Z,0.00
2023-02-26T05:26:27.737Z,0.00
2023-02-26T05:28:55.622Z,0.10
2023-02-26T05:31:22.464Z,0.00
2023-02-26T05:33:49.360Z,0.00
2023-02-26T05:36:16.044Z,0.28
2023-02-26T05:38:42.837Z,0.55
2023-02-26T05:41:09.522Z,0.00
2023-02-26T05:43:37.319Z,0.00
2023-02-26T05:46:04.058Z,0.08
2023-02-26T05:48:30.956Z,0.10
2023-02-26T05:50:57.608Z,0.00
2023-02-26T05:53:24.370Z,0.00
2023-02-26T05:55:53.429Z,0.00
2023-02-26T05:58:20.289Z,0.10
2023-02-26T06:00:47.116Z,0.00
2023-02-26T06:03:14.083Z,0.00
2023-02-26T06:05:40.862Z,0.10
2023-02-26T06:08:07.728Z,0.10
2023-02-26T06:10:34.586Z,0.00
2023-02-26T06:13:01.393Z,0.00
2023-02-26T06:15:28.121Z,0.00
2023-02-26T06:17:54.975Z,0.00
2023-02-26T06:20:21.688Z,0.00
2023-02-26T06:22:48.510Z,0.00
2023-02-26T06:25:15.400Z,0.00
2023-02-26T06:27:42.324Z,0.00
2023-02-26T06:30:09.917Z,0.00
2023-02-26T06:32:36.906Z,0.05
2023-02-26T06:35:04.543Z,0.00
2023-02-26T06:37:31.377Z,1.17
2023-02-26T06:39:58.025Z,1.50
2023-02-26T06:42:24.766Z,1.35
2023-02-26T06:44:51.622Z,1.00
2023-02-26T06:47:18.504Z,1.30
2023-02-26T06:49:45.160Z,1.50
2023-02-26T06:52:11.933Z,1.70
2023-02-26T06:54:38.629Z,0.40
2023-02-26T06:57:05.442Z,1.38
2023-02-26T06:59:32.233Z,0.98
2023-02-26T07:01:59.058Z,1.33
2023-02-26T07:04:25.898Z,1.95
2023-02-26T07:06:55.611Z,1.60
2023-02-26T07:09:28.435Z,1.80
2023-02-26T07:11:55.329Z,1.50
2023-02-26T07:14:47.160Z,1.13
2023-02-26T07:17:20.853Z,1.27
2023-02-26T07:19:49.658Z,1.27
2023-02-26T07:22:17.245Z,1.15
2023-02-26T07:24:44.066Z,1.20
2023-02-26T07:27:10.822Z,1.45
2023-02-26T07:29:37.794Z,1.38
2023-02-26T07:32:04.952Z,1.02
2023-02-26T07:34:32.297Z,0.70
2023-02-26T07:36:59.272Z,0.82
2023-02-26T07:39:27.338Z,1.10
2023-02-26T07:41:54.832Z,1.20
2023-02-26T07:44:22.150Z,0.52
2023-02-26T07:46:56.906Z,0.65
2023-02-26T07:49:25.856Z,0.90
2023-02-26T07:51:54.954Z,0.88
2023-02-26T08:31:15.731Z,1.65
2023-02-26T08:33:44.361Z,1.00
2023-02-26T08:36:12.156Z,0.82
2023-02-26T08:38:39.675Z,1.02
2023-02-26T08:41:06.600Z,0.93
2023-02-26T08:43:33.461Z,0.95
2023-02-26T08:46:00.637Z,1.05
2023-02-26T08:48:27.623Z,1.48
2023-02-26T08:50:54.432Z,0.98
2023-02-26T08:53:21.279Z,0.85
2023-02-26T08:55:49.754Z,0.77
2023-02-26T08:58:17.202Z,0.85
2023-02-26T09:00:44.461Z,0.63
2023-02-26T09:03:11.485Z,0.98
2023-02-26T09:05:38.798Z,1.08
2023-02-26T09:08:05.645Z,1.10
2023-02-26T09:10:32.408Z,0.95
2023-02-26T09:12:59.390Z,1.10
2023-02-26T09:15:26.376Z,1.10
2023-02-26T09:17:54.890Z,1.02
2023-02-26T09:20:21.655Z,1.30
2023-02-26T09:22:48.405Z,1.15
2023-02-26T09:25:15.365Z,1.50
2023-02-26T09:27:42.189Z,2.00
2023-02-26T09:30:10.033Z,1.40
2023-02-26T09:32:36.917Z,0.70
2023-02-26T09:35:05.581Z,0.85
2023-02-26T09:37:32.731Z,1.20
2023-02-26T09:39:59.522Z,1.00
2023-02-26T09:42:43.591Z,1.15
2023-02-26T09:45:19.147Z,1.25
2023-02-26T09:47:51.860Z,0.70
2023-02-26T09:50:25.848Z,0.88
2023-02-26T09:52:56.209Z,1.10
2023-02-26T09:55:35.602Z,0.93
2023-02-26T09:58:05.220Z,1.08
2023-02-26T10:00:41.006Z,1.08
2023-02-26T10:03:07.747Z,0.85
2023-02-26T10:05:50.422Z,1.30
2023-02-26T10:08:18.624Z,0.70
2023-02-26T10:11:15.296Z,0.90
2023-02-26T10:13:58.509Z,0.80
2023-02-26T10:16:28.794Z,0.60
2023-02-26T10:19:01.100Z,0.50
2023-02-26T10:21:37.244Z,0.68
2023-02-26T10:24:11.578Z,0.43
2023-02-26T10:26:55.779Z,0.73
2023-02-26T10:29:33.045Z,0.50
2023-02-26T10:32:41.977Z,2.55
2023-02-26T10:35:15.030Z,0.52
2023-02-26T10:37:59.084Z,0.63
2023-02-26T10:40:44.635Z,0.57
2023-02-26T10:43:27.267Z,0.70
2023-02-26T10:46:19.325Z,0.65
2023-02-26T10:49:19.029Z,0.85
2023-02-26T10:51:47.189Z,0.70
2023-02-26T10:54:42.364Z,0.80
2023-02-26T10:57:18.998Z,0.63
2023-02-26T10:59:45.824Z,0.35
2023-02-26T11:02:43.721Z,1.13
2023-02-26T11:05:20.779Z,1.10
2023-02-26T11:07:50.596Z,1.33
2023-02-26T11:10:22.283Z,1.30
2023-02-26T11:12:49.205Z,0.90
2023-02-26T11:15:21.109Z,1.40
2023-02-26T11:17:49.104Z,0.50
2023-02-26T11:20:38.323Z,0.70
2023-02-26T11:23:07.933Z,0.73
2023-02-26T11:25:36.184Z,0.50
2023-02-26T11:28:06.701Z,0.70
2023-02-26T11:30:37.806Z,0.65
2023-02-26T11:33:14.295Z,0.30
2023-02-26T11:35:41.221Z,0.60
2023-02-26T11:38:12.943Z,0.73
2023-02-26T11:40:42.947Z,0.90
2023-02-26T11:43:18.416Z,0.90
2023-02-26T11:45:49.209Z,1.00
2023-02-26T11:50:54.128Z,0.50
2023-02-26T11:53:33.238Z,0.50
2023-02-26T11:56:09.146Z,0.82
2023-02-26T11:58:38.100Z,0.80
2023-02-26T12:01:07.747Z,0.80
2023-02-26T12:03:40.199Z,2.70
2023-02-26T12:06:08.275Z,0.90
2023-02-26T12:08:38.585Z,1.30
2023-02-26T12:11:13.713Z,0.70
2023-02-26T12:14:05.508Z,1.17
2023-02-26T12:17:12.349Z,0.43
2023-02-26T12:19:57.880Z,0.45
2023-02-26T12:22:47.139Z,0.88
2023-02-26T12:25:32.119Z,0.45
2023-02-26T12:28:26.952Z,0.77
2023-02-26T12:31:29.430Z,0.82
2023-02-26T12:34:08.714Z,1.33
2023-02-26T12:36:49.849Z,0.77
2023-02-26T12:39:35.460Z,1.08
2023-02-26T12:42:44.595Z,1.63
2023-02-26T12:45:11.280Z,0.80
2023-02-26T12:47:48.381Z,1.02
2023-02-26T12:50:44.548Z,0.80
2023-02-26T14:09:55.155Z,0.50
2023-02-26T14:12:25.001Z,0.80
2023-02-26T14:15:00.670Z,0.50
2023-02-26T14:17:48.319Z,0.60
2023-02-26T14:20:21.174Z,0.50
2023-02-26T14:22:52.794Z,0.65
2023-02-26T14:25:40.279Z,0.90
2023-02-26T14:28:25.609Z,0.70
2023-02-26T14:30:59.995Z,0.55
2023-02-26T14:33:30.937Z,0.63
2023-02-26T14:38:27.615Z,0.98
2023-02-26T14:40:58.306Z,0.57
2023-02-26T14:46:02.743Z,0.63
2023-02-26T14:48:30.304Z,0.73
2023-02-26T14:51:18.477Z,0.80
2023-02-26T14:54:03.815Z,0.57
2023-02-26T14:57:02.965Z,1.00
2023-02-26T14:59:59.286Z,0.77
2023-02-26T15:02:29.430Z,0.52
2023-02-26T15:04:59.029Z,0.50
2023-02-26T15:07:38.398Z,0.45
2023-02-26T15:10:11.205Z,0.85
2023-02-26T15:12:59.457Z,0.63
2023-02-26T15:15:39.424Z,0.43
2023-02-26T15:18:47.831Z,0.70
2023-02-26T15:21:20.269Z,0.55
2023-02-26T16:53:58.331Z,0.30
2023-02-26T16:59:24.582Z,0.20
2023-02-26T17:01:55.694Z,0.35
2023-02-26T17:04:26.832Z,0.70
2023-02-26T17:06:53.857Z,0.28
2023-02-26T17:09:48.350Z,0.50
2023-02-26T17:12:18.215Z,0.30
2023-02-26T17:14:52.489Z,0.60
2023-02-26T17:17:19.272Z,0.30
2023-02-26T17:19:46.012Z,0.30
2023-02-26T17:22:15.395Z,0.30
2023-02-26T17:24:48.458Z,0.40
2023-02-26T17:27:18.005Z,0.43
2023-02-26T17:29:45.926Z,0.50
2023-02-26T17:32:27.467Z,0.40
2023-02-26T17:34:54.601Z,0.40
2023-02-26T17:37:22.902Z,0.40
2023-02-26T17:39:49.756Z,0.40
2023-02-26T17:42:19.943Z,0.32
2023-02-26T17:44:46.957Z,0.40
2023-02-26T17:47:20.022Z,0.40
2023-02-26T17:49:47.314Z,0.45
2023-02-26T17:52:14.829Z,0.45
2023-02-26T17:54:41.853Z,0.40
2023-02-26T17:57:14.829Z,0.35
2023-02-26T17:59:41.662Z,0.50
2023-02-26T18:02:17.737Z,0.40
2023-02-26T18:04:45.324Z,0.40
2023-02-26T18:07:16.501Z,0.30
2023-02-26T18:09:44.653Z,0.45
2023-02-26T18:12:16.073Z,0.47
2023-02-26T18:14:43.578Z,0.50
2023-02-26T18:17:14.579Z,0.55
2023-02-26T18:19:42.505Z,0.43
2023-02-26T18:22:20.220Z,0.35
2023-02-26T18:24:47.108Z,0.30
2023-02-26T18:27:19.630Z,0.30
2023-02-26T18:29:46.626Z,0.35
2023-02-26T18:32:19.182Z,0.50
2023-02-26T18:34:46.081Z,0.55
2023-02-26T18:37:15.551Z,0.40
2023-02-26T18:39:43.088Z,0.40
2023-02-26T18:42:28.459Z,0.43
2023-02-26T18:44:55.685Z,0.82
2023-02-26T18:47:22.869Z,0.85
2023-02-26T19:48:32.679Z,0.60
2023-02-26T19:51:03.379Z,0.25
2023-02-26T19:53:31.410Z,0.30
2023-02-26T19:55:58.102Z,0.38
2023-02-26T19:58:26.092Z,0.65
2023-02-26T20:00:53.652Z,0.50
2023-02-26T20:03:20.710Z,0.25
2023-02-26T20:05:51.743Z,0.50
2023-02-26T20:08:20.692Z,0.40
2023-02-26T20:10:50.864Z,0.40
2023-02-26T20:13:18.346Z,0.40
2023-02-26T20:15:45.574Z,0.30
2023-02-26T20:18:12.528Z,0.40
2023-02-26T20:20:39.611Z,0.30
2023-02-26T20:23:10.843Z,0.30
2023-02-26T20:25:38.752Z,0.38
2023-02-26T20:28:11.609Z,0.40
2023-02-26T20:30:39.388Z,0.68
2023-02-26T20:33:06.663Z,0.40
2023-02-26T20:35:33.874Z,0.60
2023-02-26T20:38:00.723Z,0.63
2023-02-26T20:40:27.585Z,0.30
2023-02-26T20:42:57.755Z,0.40
2023-02-26T20:45:24.711Z,0.30
2023-02-26T20:47:51.579Z,0.60
2023-02-26T20:50:18.442Z,0.13
2023-02-26T20:52:46.106Z,0.40
2023-02-26T20:55:14.230Z,0.30
2023-02-26T20:57:41.811Z,0.35
2023-02-26T21:00:14.194Z,0.40
2023-02-26T21:02:43.115Z,0.40
2023-02-26T21:05:11.468Z,0.30
2023-02-26T21:07:42.632Z,0.45
2023-02-26T21:12:41.581Z,0.40
2023-02-26T21:15:12.834Z,0.60
2023-02-26T21:17:41.397Z,0.38
2023-02-26T21:20:12.126Z,0.75
2023-02-26T21:22:39.485Z,0.50
2023-02-26T21:25:07.739Z,0.38
2023-02-26T21:27:35.510Z,0.40
2023-02-26T21:30:03.301Z,0.70
2023-02-26T21:32:30.376Z,0.30
2023-02-26T21:34:59.810Z,0.30
2023-02-26T21:37:27.943Z,0.40
2023-02-26T21:39:54.990Z,0.40
2023-02-26T21:42:22.627Z,0.65
2023-02-26T21:44:49.816Z,0.60
2023-02-26T21:47:17.501Z,0.40
2023-02-26T21:49:44.657Z,0.38
2023-02-26T21:52:11.834Z,0.40
2023-02-26T21:54:38.885Z,0.20
2023-02-26T21:57:05.894Z,0.43
2023-02-26T21:59:33.051Z,0.38
2023-02-26T22:01:59.958Z,0.50
2023-02-26T22:04:27.128Z,0.40
2023-02-26T22:06:54.198Z,0.35
2023-02-26T22:09:21.457Z,0.38
2023-02-26T22:11:49.573Z,0.28
2023-02-26T22:14:17.323Z,0.30
2023-02-26T22:16:44.196Z,0.20
2023-02-26T22:19:11.157Z,0.30
2023-02-26T22:21:37.936Z,0.47
2023-02-26T22:24:05.684Z,0.40
2023-02-26T22:26:32.490Z,0.50
2023-02-26T22:29:00.932Z,0.40
2023-02-26T22:31:29.348Z,0.30
2023-02-26T22:33:57.455Z,0.35
2023-02-26T22:36:25.837Z,0.40
2023-02-26T22:38:53.047Z,0.40
2023-02-26T22:41:19.825Z,0.38
2023-02-26T22:43:46.639Z,0.32
2023-02-26T22:46:13.549Z,0.30
2023-02-26T22:48:40.359Z,0.50
2023-02-26T22:51:07.295Z,0.50
2023-02-26T22:53:34.008Z,0.52
2023-02-26T22:56:00.858Z,0.45
2023-02-26T22:58:27.731Z,0.60
2023-02-26T23:01:02.655Z,0.85
2023-02-26T23:03:29.705Z,0.30
2023-02-26T23:05:57.258Z,0.40
2023-02-26T23:08:26.025Z,0.43
2023-02-26T23:10:57.282Z,0.35
2023-02-26T23:13:24.929Z,0.30
2023-02-26T23:15:52.105Z,0.70
2023-02-26T23:18:19.374Z,0.40
2023-02-26T23:20:48.964Z,0.68
2023-02-26T23:23:16.414Z,0.40
2023-02-26T23:25:43.774Z,0.30
2023-02-26T23:28:11.871Z,0.30
2023-02-26T23:30:38.993Z,0.43
2023-02-26T23:33:07.318Z,0.40
2023-02-26T23:35:35.288Z,0.73
2023-02-26T23:38:02.697Z,0.70
2023-02-26T23:40:29.804Z,0.32
2023-02-26T23:42:56.832Z,0.60
2023-02-26T23:45:24.175Z,0.38
2023-02-26T23:47:51.428Z,0.57
2023-02-26T23:50:18.443Z,0.40
2023-02-26T23:52:45.308Z,0.60
2023-02-26T23:55:12.576Z,0.50
2023-02-26T23:57:39.360Z,0.30
